sensor_id;sensor_type;location;lat;lon;timestamp;temperature;humidity
2889;DHT22;1453;42.708;23.282;2022-12-11T00:00:37;11.10;99.90
2889;DHT22;1453;42.708;23.282;2022-12-11T00:03:04;11.30;99.90
2889;DHT22;1453;42.708;23.282;2022-12-11T00:05:30;11.40;99.90
2889;DHT22;1453;42.708;23.282;2022-12-11T00:07:56;11.30;99.90
2889;DHT22;1453;42.708;23.282;2022-12-11T00:10:22;11.40;99.90
2889;DHT22;1453;42.708;23.282;2022-12-11T00:12:48;11.50;99.90
2889;DHT22;1453;42.708;23.282;2022-12-11T00:15:13;11.70;99.90
2889;DHT22;1453;42.708;23.282;2022-12-11T00:17:39;11.70;99.90
2889;DHT22;1453;42.708;23.282;2022-12-11T00:20:05;11.60;99.90
2889;DHT22;1453;42.708;23.282;2022-12-11T00:22:33;10.60;99.90
2889;DHT22;1453;42.708;23.282;2022-12-11T00:24:58;10.60;99.90
2889;DHT22;1453;42.708;23.282;2022-12-11T00:27:24;10.60;99.90
2889;DHT22;1453;42.708;23.282;2022-12-11T00:29:50;10.70;99.90
2889;DHT22;1453;42.708;23.282;2022-12-11T00:32:16;10.70;99.90
2889;DHT22;1453;42.708;23.282;2022-12-11T00:34:42;10.90;99.90
2889;DHT22;1453;42.708;23.282;2022-12-11T00:37:07;11.00;99.90
2889;DHT22;1453;42.708;23.282;2022-12-11T00:39:33;11.00;99.90
2889;DHT22;1453;42.708;23.282;2022-12-11T00:41:59;10.80;99.90
2889;DHT22;1453;42.708;23.282;2022-12-11T00:44:25;10.90;99.90
2889;DHT22;1453;42.708;23.282;2022-12-11T00:46:50;11.00;99.90
2889;DHT22;1453;42.708;23.282;2022-12-11T00:49:16;10.90;99.90
2889;DHT22;1453;42.708;23.282;2022-12-11T00:51:42;10.80;99.90
2889;DHT22;1453;42.708;23.282;2022-12-11T00:54:08;11.10;99.90
2889;DHT22;1453;42.708;23.282;2022-12-11T00:56:33;11.20;99.90
2889;DHT22;1453;42.708;23.282;2022-12-11T00:58:59;11.20;99.90
2889;DHT22;1453;42.708;23.282;2022-12-11T01:01:25;11.20;99.90
2889;DHT22;1453;42.708;23.282;2022-12-11T01:03:52;11.30;99.90
2889;DHT22;1453;42.708;23.282;2022-12-11T01:06:21;11.10;99.90
2889;DHT22;1453;42.708;23.282;2022-12-11T01:08:48;10.80;99.90
2889;DHT22;1453;42.708;23.282;2022-12-11T01:11:34;11.10;99.90
2889;DHT22;1453;42.708;23.282;2022-12-11T01:14:00;10.70;99.90
2889;DHT22;1453;42.708;23.282;2022-12-11T01:16:25;10.70;99.90
2889;DHT22;1453;42.708;23.282;2022-12-11T01:18:51;10.90;99.90
2889;DHT22;1453;42.708;23.282;2022-12-11T01:21:17;11.10;99.90
2889;DHT22;1453;42.708;23.282;2022-12-11T01:23:43;11.30;99.90
2889;DHT22;1453;42.708;23.282;2022-12-11T01:26:13;11.30;99.90
2889;DHT22;1453;42.708;23.282;2022-12-11T01:28:40;11.10;99.90
2889;DHT22;1453;42.708;23.282;2022-12-11T01:31:11;11.00;99.90
2889;DHT22;1453;42.708;23.282;2022-12-11T01:33:40;11.40;99.90
2889;DHT22;1453;42.708;23.282;2022-12-11T01:36:12;11.40;99.90
2889;DHT22;1453;42.708;23.282;2022-12-11T01:38:39;11.40;99.90
2889;DHT22;1453;42.708;23.282;2022-12-11T01:41:05;11.30;99.90
2889;DHT22;1453;42.708;23.282;2022-12-11T01:43:32;11.20;99.90
2889;DHT22;1453;42.708;23.282;2022-12-11T01:45:58;11.20;99.90
2889;DHT22;1453;42.708;23.282;2022-12-11T01:48:29;11.30;99.90
2889;DHT22;1453;42.708;23.282;2022-12-11T01:50:59;11.10;99.90
2889;DHT22;1453;42.708;23.282;2022-12-11T01:53:34;11.00;99.90
2889;DHT22;1453;42.708;23.282;2022-12-11T01:56:05;13.10;99.90
2889;DHT22;1453;42.708;23.282;2022-12-11T01:58:38;13.50;99.90
2889;DHT22;1453;42.708;23.282;2022-12-11T02:01:09;13.60;99.90
2889;DHT22;1453;42.708;23.282;2022-12-11T02:03:41;13.40;99.90
2889;DHT22;1453;42.708;23.282;2022-12-11T02:06:40;13.30;99.90
2889;DHT22;1453;42.708;23.282;2022-12-11T02:09:12;13.60;99.90
2889;DHT22;1453;42.708;23.282;2022-12-11T02:11:56;13.90;99.90
2889;DHT22;1453;42.708;23.282;2022-12-11T02:17:49;14.00;99.90
2889;DHT22;1453;42.708;23.282;2022-12-11T02:29:06;14.00;99.90
2889;DHT22;1453;42.708;23.282;2022-12-11T02:32:03;14.10;99.90
2889;DHT22;1453;42.708;23.282;2022-12-11T02:34:49;14.20;99.90
2889;DHT22;1453;42.708;23.282;2022-12-11T02:37:23;14.20;99.90
2889;DHT22;1453;42.708;23.282;2022-12-11T02:39:51;14.30;99.90
2889;DHT22;1453;42.708;23.282;2022-12-11T02:42:20;14.30;99.90
2889;DHT22;1453;42.708;23.282;2022-12-11T02:44:48;14.30;99.90
2889;DHT22;1453;42.708;23.282;2022-12-11T02:47:16;14.30;99.90
2889;DHT22;1453;42.708;23.282;2022-12-11T02:49:45;14.50;99.90
2889;DHT22;1453;42.708;23.282;2022-12-11T02:52:15;14.50;99.90
2889;DHT22;1453;42.708;23.282;2022-12-11T02:54:44;14.50;99.90
2889;DHT22;1453;42.708;23.282;2022-12-11T02:57:16;14.60;99.90
2889;DHT22;1453;42.708;23.282;2022-12-11T02:59:45;14.80;99.90
2889;DHT22;1453;42.708;23.282;2022-12-11T03:02:15;14.80;99.90
2889;DHT22;1453;42.708;23.282;2022-12-11T03:04:42;14.80;99.90
2889;DHT22;1453;42.708;23.282;2022-12-11T03:07:18;14.70;99.90
2889;DHT22;1453;42.708;23.282;2022-12-11T03:09:48;14.80;99.90
2889;DHT22;1453;42.708;23.282;2022-12-11T03:12:18;14.40;99.90
2889;DHT22;1453;42.708;23.282;2022-12-11T03:14:46;14.20;99.90
2889;DHT22;1453;42.708;23.282;2022-12-11T03:17:22;14.50;99.90
2889;DHT22;1453;42.708;23.282;2022-12-11T03:19:52;14.40;99.90
2889;DHT22;1453;42.708;23.282;2022-12-11T03:22:38;14.50;99.90
2889;DHT22;1453;42.708;23.282;2022-12-11T03:25:11;14.50;99.90
2889;DHT22;1453;42.708;23.282;2022-12-11T03:27:44;14.40;99.90
2889;DHT22;1453;42.708;23.282;2022-12-11T03:30:16;14.70;99.90
2889;DHT22;1453;42.708;23.282;2022-12-11T03:35:32;14.70;99.90
2889;DHT22;1453;42.708;23.282;2022-12-11T03:38:05;14.80;99.90
2889;DHT22;1453;42.708;23.282;2022-12-11T03:40:34;15.00;99.90
2889;DHT22;1453;42.708;23.282;2022-12-11T03:43:02;14.90;99.90
2889;DHT22;1453;42.708;23.282;2022-12-11T03:45:29;14.60;99.90
2889;DHT22;1453;42.708;23.282;2022-12-11T03:47:57;14.70;99.90
2889;DHT22;1453;42.708;23.282;2022-12-11T03:50:27;14.70;99.90
2889;DHT22;1453;42.708;23.282;2022-12-11T03:52:55;14.90;99.90
2889;DHT22;1453;42.708;23.282;2022-12-11T03:55:22;15.00;99.90
2889;DHT22;1453;42.708;23.282;2022-12-11T03:57:49;15.00;99.90
2889;DHT22;1453;42.708;23.282;2022-12-11T04:00:17;14.90;99.90
2889;DHT22;1453;42.708;23.282;2022-12-11T04:02:44;14.90;99.90
2889;DHT22;1453;42.708;23.282;2022-12-11T04:05:30;14.80;99.90
2889;DHT22;1453;42.708;23.282;2022-12-11T04:07:56;14.80;99.90
2889;DHT22;1453;42.708;23.282;2022-12-11T04:10:21;14.90;99.90
2889;DHT22;1453;42.708;23.282;2022-12-11T04:12:47;15.10;99.90
2889;DHT22;1453;42.708;23.282;2022-12-11T04:15:13;15.20;99.90
2889;DHT22;1453;42.708;23.282;2022-12-11T04:17:39;15.20;99.90
2889;DHT22;1453;42.708;23.282;2022-12-11T04:20:23;15.10;99.90
2889;DHT22;1453;42.708;23.282;2022-12-11T04:23:12;15.20;99.90
2889;DHT22;1453;42.708;23.282;2022-12-11T04:26:04;15.00;99.90
2889;DHT22;1453;42.708;23.282;2022-12-11T04:28:41;14.60;99.90
2889;DHT22;1453;42.708;23.282;2022-12-11T04:31:14;14.50;99.90
2889;DHT22;1453;42.708;23.282;2022-12-11T04:33:41;14.50;99.90
2889;DHT22;1453;42.708;23.282;2022-12-11T04:36:07;14.50;99.90
2889;DHT22;1453;42.708;23.282;2022-12-11T04:38:34;14.60;99.90
2889;DHT22;1453;42.708;23.282;2022-12-11T04:41:02;14.80;99.90
2889;DHT22;1453;42.708;23.282;2022-12-11T04:43:33;14.80;99.90
2889;DHT22;1453;42.708;23.282;2022-12-11T04:46:07;14.70;99.90
2889;DHT22;1453;42.708;23.282;2022-12-11T04:48:36;14.80;99.90
2889;DHT22;1453;42.708;23.282;2022-12-11T04:51:03;14.80;99.90
2889;DHT22;1453;42.708;23.282;2022-12-11T04:53:30;14.90;99.90
2889;DHT22;1453;42.708;23.282;2022-12-11T04:55:56;15.20;99.90
2889;DHT22;1453;42.708;23.282;2022-12-11T04:58:23;15.20;99.90
2889;DHT22;1453;42.708;23.282;2022-12-11T05:00:49;15.00;99.90
2889;DHT22;1453;42.708;23.282;2022-12-11T05:03:15;14.90;99.90
2889;DHT22;1453;42.708;23.282;2022-12-11T05:05:50;14.90;99.90
2889;DHT22;1453;42.708;23.282;2022-12-11T05:08:17;14.90;99.90
2889;DHT22;1453;42.708;23.282;2022-12-11T05:10:43;15.10;99.90
2889;DHT22;1453;42.708;23.282;2022-12-11T05:13:09;15.20;99.90
2889;DHT22;1453;42.708;23.282;2022-12-11T05:15:38;15.10;99.90
2889;DHT22;1453;42.708;23.282;2022-12-11T05:18:04;15.00;99.90
2889;DHT22;1453;42.708;23.282;2022-12-11T05:20:30;14.90;99.90
2889;DHT22;1453;42.708;23.282;2022-12-11T05:22:56;14.80;99.90
2889;DHT22;1453;42.708;23.282;2022-12-11T05:25:22;14.60;99.90
2889;DHT22;1453;42.708;23.282;2022-12-11T05:27:48;14.60;99.90
2889;DHT22;1453;42.708;23.282;2022-12-11T05:30:13;14.60;99.90
2889;DHT22;1453;42.708;23.282;2022-12-11T05:32:39;14.60;99.90
2889;DHT22;1453;42.708;23.282;2022-12-11T05:35:06;14.60;99.90
2889;DHT22;1453;42.708;23.282;2022-12-11T05:37:33;14.50;99.90
2889;DHT22;1453;42.708;23.282;2022-12-11T05:39:59;14.70;99.90
2889;DHT22;1453;42.708;23.282;2022-12-11T05:42:24;14.90;99.90
2889;DHT22;1453;42.708;23.282;2022-12-11T05:44:50;14.90;99.90
2889;DHT22;1453;42.708;23.282;2022-12-11T05:47:16;14.80;99.90
2889;DHT22;1453;42.708;23.282;2022-12-11T05:49:44;14.60;99.90
2889;DHT22;1453;42.708;23.282;2022-12-11T05:52:12;14.60;99.90
2889;DHT22;1453;42.708;23.282;2022-12-11T05:54:37;14.50;99.90
2889;DHT22;1453;42.708;23.282;2022-12-11T05:57:03;14.50;99.90
2889;DHT22;1453;42.708;23.282;2022-12-11T05:59:29;14.50;99.90
2889;DHT22;1453;42.708;23.282;2022-12-11T06:01:55;14.60;99.90
2889;DHT22;1453;42.708;23.282;2022-12-11T06:04:21;14.60;99.90
2889;DHT22;1453;42.708;23.282;2022-12-11T06:06:47;14.60;99.90
2889;DHT22;1453;42.708;23.282;2022-12-11T06:09:15;14.60;99.90
2889;DHT22;1453;42.708;23.282;2022-12-11T06:11:41;14.50;99.90
2889;DHT22;1453;42.708;23.282;2022-12-11T06:14:09;14.60;99.90
2889;DHT22;1453;42.708;23.282;2022-12-11T06:16:35;14.60;99.90
2889;DHT22;1453;42.708;23.282;2022-12-11T06:19:02;14.70;99.90
2889;DHT22;1453;42.708;23.282;2022-12-11T06:21:32;14.60;99.90
2889;DHT22;1453;42.708;23.282;2022-12-11T06:24:00;14.50;99.90
2889;DHT22;1453;42.708;23.282;2022-12-11T06:26:27;14.50;99.90
2889;DHT22;1453;42.708;23.282;2022-12-11T06:28:53;14.60;99.90
2889;DHT22;1453;42.708;23.282;2022-12-11T06:31:20;14.70;99.90
2889;DHT22;1453;42.708;23.282;2022-12-11T06:33:46;14.70;99.90
2889;DHT22;1453;42.708;23.282;2022-12-11T06:36:16;14.70;99.90
2889;DHT22;1453;42.708;23.282;2022-12-11T06:38:43;14.60;99.90
2889;DHT22;1453;42.708;23.282;2022-12-11T06:41:09;14.60;99.90
2889;DHT22;1453;42.708;23.282;2022-12-11T06:43:37;14.80;99.90
2889;DHT22;1453;42.708;23.282;2022-12-11T06:46:16;15.30;99.90
2889;DHT22;1453;42.708;23.282;2022-12-11T06:48:43;15.60;99.90
2889;DHT22;1453;42.708;23.282;2022-12-11T06:51:20;15.50;99.90
2889;DHT22;1453;42.708;23.282;2022-12-11T06:53:52;15.40;99.90
2889;DHT22;1453;42.708;23.282;2022-12-11T06:56:19;15.40;99.90
2889;DHT22;1453;42.708;23.282;2022-12-11T06:58:45;15.30;99.90
2889;DHT22;1453;42.708;23.282;2022-12-11T07:01:14;15.10;99.90
2889;DHT22;1453;42.708;23.282;2022-12-11T07:03:44;15.20;99.90
2889;DHT22;1453;42.708;23.282;2022-12-11T07:06:10;15.30;99.90
2889;DHT22;1453;42.708;23.282;2022-12-11T07:08:36;15.50;99.90
2889;DHT22;1453;42.708;23.282;2022-12-11T07:11:11;15.40;99.90
2889;DHT22;1453;42.708;23.282;2022-12-11T07:13:39;15.50;99.90
2889;DHT22;1453;42.708;23.282;2022-12-11T07:16:07;15.30;99.90
2889;DHT22;1453;42.708;23.282;2022-12-11T07:18:42;15.30;99.90
2889;DHT22;1453;42.708;23.282;2022-12-11T07:21:12;15.20;99.90
2889;DHT22;1453;42.708;23.282;2022-12-11T07:23:38;15.30;99.90
2889;DHT22;1453;42.708;23.282;2022-12-11T07:26:10;15.30;99.90
2889;DHT22;1453;42.708;23.282;2022-12-11T07:28:37;15.20;99.90
2889;DHT22;1453;42.708;23.282;2022-12-11T07:31:09;15.00;99.90
2889;DHT22;1453;42.708;23.282;2022-12-11T07:33:40;15.20;99.90
2889;DHT22;1453;42.708;23.282;2022-12-11T07:36:09;15.00;99.90
2889;DHT22;1453;42.708;23.282;2022-12-11T07:38:38;14.90;99.90
2889;DHT22;1453;42.708;23.282;2022-12-11T07:41:18;14.90;99.90
2889;DHT22;1453;42.708;23.282;2022-12-11T07:43:46;14.90;99.90
2889;DHT22;1453;42.708;23.282;2022-12-11T07:46:15;14.90;99.90
2889;DHT22;1453;42.708;23.282;2022-12-11T07:48:46;14.80;99.90
2889;DHT22;1453;42.708;23.282;2022-12-11T07:51:24;15.30;99.90
2889;DHT22;1453;42.708;23.282;2022-12-11T07:54:09;15.60;99.90
2889;DHT22;1453;42.708;23.282;2022-12-11T07:56:44;15.60;99.90
2889;DHT22;1453;42.708;23.282;2022-12-11T07:59:10;15.50;99.90
2889;DHT22;1453;42.708;23.282;2022-12-11T08:01:37;15.80;99.90
2889;DHT22;1453;42.708;23.282;2022-12-11T08:04:06;15.90;99.90
2889;DHT22;1453;42.708;23.282;2022-12-11T08:06:35;15.80;99.90
2889;DHT22;1453;42.708;23.282;2022-12-11T08:09:05;15.40;99.90
2889;DHT22;1453;42.708;23.282;2022-12-11T08:11:32;15.30;99.90
2889;DHT22;1453;42.708;23.282;2022-12-11T08:13:59;15.20;99.90
2889;DHT22;1453;42.708;23.282;2022-12-11T08:16:25;15.10;99.90
2889;DHT22;1453;42.708;23.282;2022-12-11T08:18:51;15.30;99.90
2889;DHT22;1453;42.708;23.282;2022-12-11T08:21:22;15.30;99.90
2889;DHT22;1453;42.708;23.282;2022-12-11T08:23:50;15.10;99.90
2889;DHT22;1453;42.708;23.282;2022-12-11T08:26:21;15.10;99.90
2889;DHT22;1453;42.708;23.282;2022-12-11T08:28:50;15.10;99.90
2889;DHT22;1453;42.708;23.282;2022-12-11T08:31:16;15.40;99.90
2889;DHT22;1453;42.708;23.282;2022-12-11T08:33:43;15.50;99.90
2889;DHT22;1453;42.708;23.282;2022-12-11T08:36:13;15.40;99.90
2889;DHT22;1453;42.708;23.282;2022-12-11T08:38:41;15.50;99.90
2889;DHT22;1453;42.708;23.282;2022-12-11T08:41:12;15.40;99.90
2889;DHT22;1453;42.708;23.282;2022-12-11T08:43:42;15.20;99.90
2889;DHT22;1453;42.708;23.282;2022-12-11T08:46:09;15.00;99.90
2889;DHT22;1453;42.708;23.282;2022-12-11T08:48:37;14.90;99.90
2889;DHT22;1453;42.708;23.282;2022-12-11T08:51:07;14.70;99.90
2889;DHT22;1453;42.708;23.282;2022-12-11T08:53:35;14.40;99.90
2889;DHT22;1453;42.708;23.282;2022-12-11T08:56:07;14.40;99.90
2889;DHT22;1453;42.708;23.282;2022-12-11T08:58:34;14.00;99.90
2889;DHT22;1453;42.708;23.282;2022-12-11T09:01:15;13.80;99.90
2889;DHT22;1453;42.708;23.282;2022-12-11T09:03:42;13.70;99.90
2889;DHT22;1453;42.708;23.282;2022-12-11T09:06:11;13.90;99.90
2889;DHT22;1453;42.708;23.282;2022-12-11T09:08:39;14.10;99.90
2889;DHT22;1453;42.708;23.282;2022-12-11T09:11:08;14.70;99.90
2889;DHT22;1453;42.708;23.282;2022-12-11T09:13:36;14.90;99.90
2889;DHT22;1453;42.708;23.282;2022-12-11T09:16:09;15.30;99.90
2889;DHT22;1453;42.708;23.282;2022-12-11T09:18:38;15.40;99.90
2889;DHT22;1453;42.708;23.282;2022-12-11T09:21:10;16.10;99.90
2889;DHT22;1453;42.708;23.282;2022-12-11T09:23:38;16.80;99.90
2889;DHT22;1453;42.708;23.282;2022-12-11T09:26:10;16.80;99.90
2889;DHT22;1453;42.708;23.282;2022-12-11T09:28:38;16.80;99.90
2889;DHT22;1453;42.708;23.282;2022-12-11T09:31:08;16.80;99.90
2889;DHT22;1453;42.708;23.282;2022-12-11T09:33:35;16.80;99.90
2889;DHT22;1453;42.708;23.282;2022-12-11T09:36:02;16.70;99.90
2889;DHT22;1453;42.708;23.282;2022-12-11T09:38:29;17.10;99.90
2889;DHT22;1453;42.708;23.282;2022-12-11T09:40:55;17.50;99.90
2889;DHT22;1453;42.708;23.282;2022-12-11T09:46:00;16.60;99.90
2889;DHT22;1453;42.708;23.282;2022-12-11T09:48:28;16.70;99.90
2889;DHT22;1453;42.708;23.282;2022-12-11T09:50:56;16.40;99.90
2889;DHT22;1453;42.708;23.282;2022-12-11T09:53:35;16.60;99.90
2889;DHT22;1453;42.708;23.282;2022-12-11T09:56:24;16.40;99.90
2889;DHT22;1453;42.708;23.282;2022-12-11T10:02:02;16.90;99.90
2889;DHT22;1453;42.708;23.282;2022-12-11T10:08:52;17.00;99.90
2889;DHT22;1453;42.708;23.282;2022-12-11T10:14:09;17.10;99.90
2889;DHT22;1453;42.708;23.282;2022-12-11T10:17:10;17.40;99.90
2889;DHT22;1453;42.708;23.282;2022-12-11T10:19:41;17.50;99.90
2889;DHT22;1453;42.708;23.282;2022-12-11T10:22:28;16.40;99.90
2889;DHT22;1453;42.708;23.282;2022-12-11T10:25:01;15.90;99.90
2889;DHT22;1453;42.708;23.282;2022-12-11T10:27:32;15.60;99.90
2889;DHT22;1453;42.708;23.282;2022-12-11T10:30:17;15.40;99.90
2889;DHT22;1453;42.708;23.282;2022-12-11T10:38:31;15.00;99.90
2889;DHT22;1453;42.708;23.282;2022-12-11T10:41:04;15.00;99.90
2889;DHT22;1453;42.708;23.282;2022-12-11T10:43:46;15.40;99.90
2889;DHT22;1453;42.708;23.282;2022-12-11T10:46:33;15.50;99.90
2889;DHT22;1453;42.708;23.282;2022-12-11T10:49:01;15.80;99.90
2889;DHT22;1453;42.708;23.282;2022-12-11T10:53:59;17.20;99.90
2889;DHT22;1453;42.708;23.282;2022-12-11T10:56:31;16.90;99.90
2889;DHT22;1453;42.708;23.282;2022-12-11T10:58:59;16.60;99.90
2889;DHT22;1453;42.708;23.282;2022-12-11T11:01:30;16.30;99.90
2889;DHT22;1453;42.708;23.282;2022-12-11T11:04:04;16.40;99.90
2889;DHT22;1453;42.708;23.282;2022-12-11T11:06:32;16.80;99.90
2889;DHT22;1453;42.708;23.282;2022-12-11T11:08:59;16.50;99.90
2889;DHT22;1453;42.708;23.282;2022-12-11T11:11:34;16.60;99.90
2889;DHT22;1453;42.708;23.282;2022-12-11T11:14:15;16.20;99.90
2889;DHT22;1453;42.708;23.282;2022-12-11T11:16:47;15.90;99.90
2889;DHT22;1453;42.708;23.282;2022-12-11T11:21:58;15.20;99.90
2889;DHT22;1453;42.708;23.282;2022-12-11T11:27:39;15.20;99.90
2889;DHT22;1453;42.708;23.282;2022-12-11T11:30:29;15.40;99.90
2889;DHT22;1453;42.708;23.282;2022-12-11T11:33:04;15.50;99.90
2889;DHT22;1453;42.708;23.282;2022-12-11T11:35:37;15.30;99.90
2889;DHT22;1453;42.708;23.282;2022-12-11T11:38:04;15.70;99.90
2889;DHT22;1453;42.708;23.282;2022-12-11T11:40:45;15.60;99.90
2889;DHT22;1453;42.708;23.282;2022-12-11T11:43:35;15.80;99.90
2889;DHT22;1453;42.708;23.282;2022-12-11T11:46:17;15.80;99.90
2889;DHT22;1453;42.708;23.282;2022-12-11T11:49:23;15.70;99.90
2889;DHT22;1453;42.708;23.282;2022-12-11T11:58:16;15.10;99.90
2889;DHT22;1453;42.708;23.282;2022-12-11T12:00:47;15.10;99.90
2889;DHT22;1453;42.708;23.282;2022-12-11T12:03:16;15.10;99.90
2889;DHT22;1453;42.708;23.282;2022-12-11T12:14:07;13.90;99.90
2889;DHT22;1453;42.708;23.282;2022-12-11T12:26:16;11.60;99.90
2889;DHT22;1453;42.708;23.282;2022-12-11T12:29:22;11.10;99.90
2889;DHT22;1453;42.708;23.282;2022-12-11T12:35:26;9.60;99.90
2889;DHT22;1453;42.708;23.282;2022-12-11T12:40:39;9.20;99.90
2889;DHT22;1453;42.708;23.282;2022-12-11T12:46:59;8.70;99.90
2889;DHT22;1453;42.708;23.282;2022-12-11T12:49:42;8.60;99.90
2889;DHT22;1453;42.708;23.282;2022-12-11T12:52:31;8.20;99.90
2889;DHT22;1453;42.708;23.282;2022-12-11T12:57:59;8.00;99.90
2889;DHT22;1453;42.708;23.282;2022-12-11T13:00:35;7.60;99.90
2889;DHT22;1453;42.708;23.282;2022-12-11T13:03:21;7.40;99.90
2889;DHT22;1453;42.708;23.282;2022-12-11T13:06:02;7.30;99.90
2889;DHT22;1453;42.708;23.282;2022-12-11T13:08:49;7.30;99.90
2889;DHT22;1453;42.708;23.282;2022-12-11T13:11:18;6.90;99.90
2889;DHT22;1453;42.708;23.282;2022-12-11T13:18:42;6.60;99.90
2889;DHT22;1453;42.708;23.282;2022-12-11T13:26:37;6.50;99.90
2889;DHT22;1453;42.708;23.282;2022-12-11T13:29:04;6.50;99.90
2889;DHT22;1453;42.708;23.282;2022-12-11T13:31:37;6.50;99.90
2889;DHT22;1453;42.708;23.282;2022-12-11T13:36:48;6.30;99.90
2889;DHT22;1453;42.708;23.282;2022-12-11T13:39:27;6.10;99.90
2889;DHT22;1453;42.708;23.282;2022-12-11T13:41:59;6.20;99.90
2889;DHT22;1453;42.708;23.282;2022-12-11T13:44:40;6.20;99.90
2889;DHT22;1453;42.708;23.282;2022-12-11T13:47:14;6.10;99.90
2889;DHT22;1453;42.708;23.282;2022-12-11T13:49:46;6.20;99.90
2889;DHT22;1453;42.708;23.282;2022-12-11T13:52:22;6.00;99.90
2889;DHT22;1453;42.708;23.282;2022-12-11T13:54:55;5.80;99.90
2889;DHT22;1453;42.708;23.282;2022-12-11T13:57:25;5.80;99.90
2889;DHT22;1453;42.708;23.282;2022-12-11T13:59:54;5.60;99.90
2889;DHT22;1453;42.708;23.282;2022-12-11T14:02:38;5.60;99.90
2889;DHT22;1453;42.708;23.282;2022-12-11T14:05:10;5.70;99.90
2889;DHT22;1453;42.708;23.282;2022-12-11T14:07:45;5.60;99.90
2889;DHT22;1453;42.708;23.282;2022-12-11T14:10:20;5.60;99.90
2889;DHT22;1453;42.708;23.282;2022-12-11T14:12:59;5.50;99.90
2889;DHT22;1453;42.708;23.282;2022-12-11T14:15:27;5.50;99.90
2889;DHT22;1453;42.708;23.282;2022-12-11T14:17:55;5.40;99.90
2889;DHT22;1453;42.708;23.282;2022-12-11T14:20:31;5.10;99.90
2889;DHT22;1453;42.708;23.282;2022-12-11T14:23:27;5.30;99.90
2889;DHT22;1453;42.708;23.282;2022-12-11T14:28:24;5.10;99.90
2889;DHT22;1453;42.708;23.282;2022-12-11T14:30:56;5.00;99.90
2889;DHT22;1453;42.708;23.282;2022-12-11T14:33:32;5.10;99.90
2889;DHT22;1453;42.708;23.282;2022-12-11T14:36:03;4.90;99.90
2889;DHT22;1453;42.708;23.282;2022-12-11T14:38:39;4.80;99.90
2889;DHT22;1453;42.708;23.282;2022-12-11T14:44:32;4.80;99.90
2889;DHT22;1453;42.708;23.282;2022-12-11T14:47:03;4.70;99.90
2889;DHT22;1453;42.708;23.282;2022-12-11T14:52:24;4.60;99.90
2889;DHT22;1453;42.708;23.282;2022-12-11T14:55:20;4.70;99.90
2889;DHT22;1453;42.708;23.282;2022-12-11T14:57:51;4.90;99.90
2889;DHT22;1453;42.708;23.282;2022-12-11T15:02:57;4.80;99.90
2889;DHT22;1453;42.708;23.282;2022-12-11T15:05:28;4.80;99.90
2889;DHT22;1453;42.708;23.282;2022-12-11T15:10:38;4.70;99.90
2889;DHT22;1453;42.708;23.282;2022-12-11T15:13:07;4.70;99.90
2889;DHT22;1453;42.708;23.282;2022-12-11T15:15:43;4.70;99.90
2889;DHT22;1453;42.708;23.282;2022-12-11T15:18:38;4.60;99.90
2889;DHT22;1453;42.708;23.282;2022-12-11T15:21:06;4.60;99.90
2889;DHT22;1453;42.708;23.282;2022-12-11T15:26:14;4.70;99.90
2889;DHT22;1453;42.708;23.282;2022-12-11T15:28:39;4.70;99.90
2889;DHT22;1453;42.708;23.282;2022-12-11T15:31:24;4.70;99.90
2889;DHT22;1453;42.708;23.282;2022-12-11T15:33:50;4.50;99.90
2889;DHT22;1453;42.708;23.282;2022-12-11T15:39:00;4.40;99.90
2889;DHT22;1453;42.708;23.282;2022-12-11T15:41:26;4.40;99.90
2889;DHT22;1453;42.708;23.282;2022-12-11T15:44:00;4.30;99.90
2889;DHT22;1453;42.708;23.282;2022-12-11T15:46:29;4.30;99.90
2889;DHT22;1453;42.708;23.282;2022-12-11T15:48:55;4.40;99.90
2889;DHT22;1453;42.708;23.282;2022-12-11T15:51:21;4.60;99.90
2889;DHT22;1453;42.708;23.282;2022-12-11T15:53:48;4.40;99.90
2889;DHT22;1453;42.708;23.282;2022-12-11T15:56:15;4.30;99.90
2889;DHT22;1453;42.708;23.282;2022-12-11T15:58:42;4.40;99.90
2889;DHT22;1453;42.708;23.282;2022-12-11T16:01:09;4.50;99.90
2889;DHT22;1453;42.708;23.282;2022-12-11T16:03:34;4.50;99.90
2889;DHT22;1453;42.708;23.282;2022-12-11T16:06:00;4.40;99.90
2889;DHT22;1453;42.708;23.282;2022-12-11T16:08:26;4.40;99.90
2889;DHT22;1453;42.708;23.282;2022-12-11T16:10:53;4.50;99.90
2889;DHT22;1453;42.708;23.282;2022-12-11T16:13:20;4.40;99.90
2889;DHT22;1453;42.708;23.282;2022-12-11T16:15:47;4.40;99.90
2889;DHT22;1453;42.708;23.282;2022-12-11T16:18:17;4.40;99.90
2889;DHT22;1453;42.708;23.282;2022-12-11T16:20:46;4.30;99.90
2889;DHT22;1453;42.708;23.282;2022-12-11T16:23:13;4.40;99.90
2889;DHT22;1453;42.708;23.282;2022-12-11T16:25:41;4.20;99.90
2889;DHT22;1453;42.708;23.282;2022-12-11T16:28:12;4.40;99.90
2889;DHT22;1453;42.708;23.282;2022-12-11T16:30:41;4.10;99.90
2889;DHT22;1453;42.708;23.282;2022-12-11T16:33:10;4.40;99.90
2889;DHT22;1453;42.708;23.282;2022-12-11T16:35:37;4.30;99.90
2889;DHT22;1453;42.708;23.282;2022-12-11T16:38:03;4.20;99.90
2889;DHT22;1453;42.708;23.282;2022-12-11T16:40:32;4.20;99.90
2889;DHT22;1453;42.708;23.282;2022-12-11T16:42:58;4.20;99.90
2889;DHT22;1453;42.708;23.282;2022-12-11T16:45:26;4.20;99.90
2889;DHT22;1453;42.708;23.282;2022-12-11T16:47:53;4.10;99.90
2889;DHT22;1453;42.708;23.282;2022-12-11T16:50:22;4.10;99.90
2889;DHT22;1453;42.708;23.282;2022-12-11T16:52:50;4.00;99.90
2889;DHT22;1453;42.708;23.282;2022-12-11T16:55:17;4.00;99.90
2889;DHT22;1453;42.708;23.282;2022-12-11T16:57:48;4.10;99.90
2889;DHT22;1453;42.708;23.282;2022-12-11T17:00:14;4.20;99.90
2889;DHT22;1453;42.708;23.282;2022-12-11T17:02:40;4.20;99.90
2889;DHT22;1453;42.708;23.282;2022-12-11T17:05:09;4.30;99.90
2889;DHT22;1453;42.708;23.282;2022-12-11T17:07:36;4.10;99.90
2889;DHT22;1453;42.708;23.282;2022-12-11T17:10:05;3.90;99.90
2889;DHT22;1453;42.708;23.282;2022-12-11T17:12:33;3.90;99.90
2889;DHT22;1453;42.708;23.282;2022-12-11T17:15:01;3.80;99.90
2889;DHT22;1453;42.708;23.282;2022-12-11T17:17:27;3.90;99.90
2889;DHT22;1453;42.708;23.282;2022-12-11T17:19:54;4.10;99.90
2889;DHT22;1453;42.708;23.282;2022-12-11T17:22:21;3.80;99.90
2889;DHT22;1453;42.708;23.282;2022-12-11T17:24:49;3.70;99.90
2889;DHT22;1453;42.708;23.282;2022-12-11T17:27:17;3.80;99.90
2889;DHT22;1453;42.708;23.282;2022-12-11T17:29:44;3.80;99.90
2889;DHT22;1453;42.708;23.282;2022-12-11T17:32:15;3.70;99.90
2889;DHT22;1453;42.708;23.282;2022-12-11T17:34:45;3.70;99.90
2889;DHT22;1453;42.708;23.282;2022-12-11T17:37:14;3.60;99.90
2889;DHT22;1453;42.708;23.282;2022-12-11T17:39:43;3.60;99.90
2889;DHT22;1453;42.708;23.282;2022-12-11T17:42:13;3.60;99.90
2889;DHT22;1453;42.708;23.282;2022-12-11T17:44:41;3.70;99.90
2889;DHT22;1453;42.708;23.282;2022-12-11T17:47:13;3.70;99.90
2889;DHT22;1453;42.708;23.282;2022-12-11T17:49:41;3.70;99.90
2889;DHT22;1453;42.708;23.282;2022-12-11T17:52:08;3.50;99.90
2889;DHT22;1453;42.708;23.282;2022-12-11T17:54:34;3.50;99.90
2889;DHT22;1453;42.708;23.282;2022-12-11T17:57:00;3.70;99.90
2889;DHT22;1453;42.708;23.282;2022-12-11T17:59:26;3.60;99.90
2889;DHT22;1453;42.708;23.282;2022-12-11T18:01:52;3.60;99.90